createdAt,value
2023-03-10T00:00:06.019Z,8.23
2023-03-10T00:02:34.832Z,7.47
2023-03-10T00:05:03.847Z,7.07
2023-03-10T00:07:30.890Z,6.13
2023-03-10T00:09:57.550Z,6.10
2023-03-10T00:12:27.789Z,7.00
2023-03-10T00:14:56.364Z,6.93
2023-03-10T00:17:22.941Z,5.95
2023-03-10T00:19:49.588Z,5.20
2023-03-10T00:22:16.186Z,6.00
2023-03-10T00:24:42.735Z,5.40
2023-03-10T00:27:09.265Z,6.15
2023-03-10T00:29:35.827Z,6.30
2023-03-10T00:32:02.385Z,5.25
2023-03-10T00:34:28.946Z,5.68
2023-03-10T00:36:55.464Z,6.57
2023-03-10T00:39:22.536Z,6.88
2023-03-10T00:41:49.097Z,6.45
2023-03-10T00:44:16.046Z,6.38
2023-03-10T00:46:42.741Z,6.13
2023-03-10T00:49:15.292Z,6.45
2023-03-10T00:51:41.860Z,5.57
2023-03-10T00:54:10.398Z,5.22
2023-03-10T00:56:37.245Z,7.13
2023-03-10T00:59:04.406Z,5.88
2023-03-10T01:01:34.261Z,7.05
2023-03-10T01:04:14.373Z,6.22
2023-03-10T01:06:42.332Z,7.85
2023-03-10T01:09:08.924Z,6.28
2023-03-10T01:11:39.213Z,6.10
2023-03-10T01:14:14.583Z,6.97
2023-03-10T01:16:41.384Z,7.10
2023-03-10T01:19:08.030Z,6.13
2023-03-10T01:21:37.146Z,6.90
2023-03-10T01:24:04.868Z,6.30
2023-03-10T01:26:37.745Z,5.35
2023-03-10T01:29:06.942Z,6.28
2023-03-10T01:31:33.614Z,5.93
2023-03-10T01:36:41.778Z,5.43
2023-03-10T01:39:11.130Z,4.78
2023-03-10T01:41:39.548Z,6.57
2023-03-10T01:44:12.985Z,5.47
2023-03-10T01:46:50.098Z,5.88
2023-03-10T01:49:42.277Z,7.80
2023-03-10T01:52:21.851Z,5.53
2023-03-10T01:55:11.773Z,5.45
2023-03-10T01:57:45.747Z,5.13
2023-03-10T02:00:12.845Z,4.63
2023-03-10T02:02:48.303Z,4.70
2023-03-10T02:05:15.635Z,5.80
2023-03-10T02:07:43.260Z,5.72
2023-03-10T02:10:16.324Z,6.43
2023-03-10T02:12:45.736Z,5.15
2023-03-10T02:15:13.429Z,5.65
2023-03-10T02:17:40.917Z,5.43
2023-03-10T02:20:44.281Z,5.80
2023-03-10T02:23:28.993Z,4.40
2023-03-10T02:26:29.213Z,4.53
2023-03-10T02:28:58.835Z,5.25
2023-03-10T02:31:27.049Z,5.65
2023-03-10T02:33:56.972Z,4.18
2023-03-10T02:36:24.643Z,5.00
2023-03-10T02:38:51.258Z,4.88
2023-03-10T02:41:26.179Z,6.13
2023-03-10T02:43:54.746Z,6.45
2023-03-10T02:46:22.611Z,4.95
2023-03-10T02:48:49.181Z,5.25
2023-03-10T02:51:23.327Z,4.10
2023-03-10T02:53:49.977Z,3.63
2023-03-10T02:56:16.552Z,5.10
2023-03-10T02:58:43.167Z,4.53
2023-03-10T03:01:10.118Z,4.55
2023-03-10T03:03:37.215Z,6.07
2023-03-10T03:06:04.189Z,5.07
2023-03-10T03:08:30.785Z,5.03
2023-03-10T03:10:57.412Z,7.20
2023-03-10T03:13:23.961Z,6.35
2023-03-10T03:15:50.985Z,5.35
2023-03-10T03:18:17.876Z,6.13
2023-03-10T03:20:44.520Z,6.95
2023-03-10T03:23:11.669Z,5.95
2023-03-10T03:25:40.168Z,7.55
2023-03-10T03:28:09.004Z,6.55
2023-03-10T03:30:36.384Z,8.05
2023-03-10T03:33:04.232Z,6.38
2023-03-10T03:35:33.486Z,6.75
2023-03-10T03:38:00.357Z,6.10
2023-03-10T03:40:29.779Z,8.05
2023-03-10T03:42:56.683Z,6.90
2023-03-10T03:45:25.634Z,5.05
2023-03-10T03:47:52.268Z,6.38
2023-03-10T03:50:20.497Z,5.70
2023-03-10T03:52:47.657Z,5.75
2023-03-10T03:55:15.856Z,4.90
2023-03-10T03:57:44.894Z,4.78
2023-03-10T04:00:16.498Z,5.28
2023-03-10T04:02:43.118Z,5.18
2023-03-10T04:05:09.810Z,3.33
2023-03-10T04:07:39.228Z,4.30
2023-03-10T04:10:08.004Z,5.38
2023-03-10T04:12:34.505Z,6.38
2023-03-10T04:15:01.120Z,3.30
2023-03-10T04:17:27.626Z,3.83
2023-03-10T04:20:06.224Z,4.03
2023-03-10T04:22:34.786Z,4.68
2023-03-10T04:25:01.780Z,4.07
2023-03-10T04:27:28.310Z,4.03
2023-03-10T04:29:55.001Z,4.32
2023-03-10T04:32:21.770Z,3.70
2023-03-10T04:34:48.548Z,4.22
2023-03-10T04:37:15.558Z,3.83
2023-03-10T04:39:42.394Z,3.58
2023-03-10T04:42:09.042Z,5.90
2023-03-10T04:44:35.767Z,3.42
2023-03-10T04:47:02.549Z,4.07
2023-03-10T04:49:29.672Z,3.70
2023-03-10T04:51:56.340Z,3.50
2023-03-10T04:54:22.946Z,5.53
2023-03-10T04:56:49.585Z,3.15
2023-03-10T04:59:16.287Z,3.15
2023-03-10T05:01:42.961Z,5.35
2023-03-10T05:04:10.221Z,3.45
2023-03-10T05:06:36.850Z,7.13
2023-03-10T05:09:04.837Z,5.05
2023-03-10T05:11:32.061Z,4.03
2023-03-10T05:13:58.760Z,3.55
2023-03-10T05:16:25.678Z,3.40
2023-03-10T05:18:52.610Z,3.95
2023-03-10T05:21:21.572Z,4.38
2023-03-10T05:23:48.414Z,3.83
2023-03-10T05:26:15.054Z,4.00
2023-03-10T05:28:41.894Z,3.42
2023-03-10T05:31:11.883Z,4.53
2023-03-10T05:33:38.493Z,4.20
2023-03-10T05:36:10.280Z,3.92
2023-03-10T05:38:37.625Z,4.43
2023-03-10T05:41:13.174Z,3.75
2023-03-10T05:43:40.052Z,3.95
2023-03-10T05:46:07.478Z,4.60
2023-03-10T05:48:34.343Z,3.47
2023-03-10T05:51:03.645Z,4.45
2023-03-10T05:53:32.367Z,4.18
2023-03-10T05:55:59.642Z,4.15
2023-03-10T05:58:26.611Z,3.95
2023-03-10T06:00:53.557Z,3.13
2023-03-10T06:03:20.305Z,4.15
2023-03-10T06:05:46.975Z,3.97
2023-03-10T06:08:13.532Z,4.35
2023-03-10T06:10:40.471Z,3.28
2023-03-10T06:13:07.114Z,3.40
2023-03-10T06:15:33.786Z,4.00
2023-03-10T06:18:00.365Z,3.30
2023-03-10T06:20:26.997Z,4.53
2023-03-10T06:22:53.683Z,3.65
2023-03-10T06:25:20.532Z,3.78
2023-03-10T06:27:47.683Z,7.93
2023-03-10T06:30:15.501Z,3.40
2023-03-10T06:32:42.094Z,3.47
2023-03-10T06:35:13.058Z,3.50
2023-03-10T06:37:39.641Z,3.75
2023-03-10T06:40:08.201Z,3.40
2023-03-10T06:42:34.967Z,3.95
2023-03-10T06:45:01.645Z,3.15
2023-03-10T06:47:28.279Z,2.95
2023-03-10T06:49:55.459Z,3.08
2023-03-10T06:52:22.244Z,3.28
2023-03-10T06:54:48.800Z,3.10
2023-03-10T06:57:15.337Z,3.75
2023-03-10T06:59:41.835Z,3.22
2023-03-10T07:02:11.814Z,2.83
2023-03-10T07:04:39.187Z,3.40
2023-03-10T07:07:05.889Z,2.95
2023-03-10T07:09:32.423Z,5.20
2023-03-10T07:11:58.995Z,3.67
2023-03-10T07:14:25.598Z,2.88
2023-03-10T07:16:52.261Z,3.50
2023-03-10T07:19:18.831Z,4.90
2023-03-10T07:21:45.427Z,4.85
2023-03-10T07:24:11.961Z,3.78
2023-03-10T07:26:38.593Z,4.13
2023-03-10T07:29:05.328Z,5.60
2023-03-10T07:31:32.742Z,4.30
2023-03-10T07:33:59.314Z,4.85
2023-03-10T07:36:25.924Z,3.90
2023-03-10T07:38:52.504Z,4.82
2023-03-10T07:41:21.456Z,4.78
2023-03-10T07:43:52.036Z,6.13
2023-03-10T07:46:19.017Z,5.07
2023-03-10T07:48:45.603Z,6.38
2023-03-10T07:51:12.602Z,4.68
2023-03-10T07:53:39.330Z,5.15
2023-03-10T07:56:07.713Z,5.95
2023-03-10T07:58:35.514Z,4.68
2023-03-10T08:01:03.151Z,5.20
2023-03-10T08:03:29.818Z,6.72
2023-03-10T08:05:57.100Z,5.53
2023-03-10T08:08:23.685Z,5.53
2023-03-10T08:10:50.367Z,5.90
2023-03-10T08:13:17.338Z,6.15
2023-03-10T08:15:44.562Z,6.53
2023-03-10T08:18:11.615Z,4.88
2023-03-10T08:20:40.593Z,5.70
2023-03-10T08:23:07.538Z,6.80
2023-03-10T08:25:34.124Z,6.25
2023-03-10T08:28:00.678Z,5.25
2023-03-10T08:30:27.244Z,4.72
2023-03-10T08:32:53.879Z,7.43
2023-03-10T08:35:20.438Z,7.15
2023-03-10T08:37:47.067Z,5.78
2023-03-10T08:40:14.968Z,6.05
2023-03-10T08:42:41.623Z,5.65
2023-03-10T08:45:09.022Z,6.05
2023-03-10T08:47:36.146Z,7.45
2023-03-10T08:50:03.731Z,4.32
2023-03-10T08:52:30.382Z,3.90
2023-03-10T08:54:59.740Z,3.28
2023-03-10T08:57:26.418Z,4.05
2023-03-10T08:59:53.111Z,4.53
2023-03-10T09:02:21.998Z,4.13
2023-03-10T09:04:49.558Z,3.63
2023-03-10T09:07:16.305Z,3.95
2023-03-10T09:09:43.083Z,3.30
2023-03-10T09:12:10.630Z,4.95
2023-03-10T09:14:38.176Z,3.05
2023-03-10T09:17:05.650Z,2.88
2023-03-10T09:19:32.162Z,3.60
2023-03-10T09:21:59.404Z,3.65
2023-03-10T09:24:26.522Z,5.15
2023-03-10T09:26:53.072Z,3.13
2023-03-10T09:29:23.021Z,3.70
2023-03-10T09:31:53.774Z,3.30
2023-03-10T09:34:20.575Z,3.45
2023-03-10T09:36:47.196Z,2.65
2023-03-10T09:39:13.912Z,2.60
2023-03-10T09:41:46.717Z,3.22
2023-03-10T09:44:25.916Z,2.42
2023-03-10T09:47:04.797Z,3.75
2023-03-10T09:50:04.044Z,2.92
2023-03-10T09:53:07.560Z,3.63
2023-03-10T09:55:47.529Z,2.20
2023-03-10T09:58:30.685Z,2.28
2023-03-10T10:00:59.310Z,1.75
2023-03-10T10:03:52.192Z,2.00
2023-03-10T10:06:26.682Z,2.40
2023-03-10T10:09:05.068Z,3.13
2023-03-10T10:11:33.304Z,3.38
2023-03-10T10:14:31.837Z,3.33
2023-03-10T10:17:29.419Z,2.38
2023-03-10T10:19:57.716Z,2.85
2023-03-10T10:22:29.416Z,3.78
2023-03-10T10:24:55.947Z,2.78
2023-03-10T10:27:24.565Z,3.08
2023-03-10T10:29:52.053Z,3.45
2023-03-10T10:32:18.621Z,3.42
2023-03-10T10:34:46.944Z,4.90
2023-03-10T10:37:30.735Z,4.85
2023-03-10T10:40:00.283Z,5.43
2023-03-10T10:42:29.808Z,5.45
2023-03-10T10:44:57.529Z,5.07
2023-03-10T10:47:26.605Z,5.15
2023-03-10T10:49:54.172Z,5.80
2023-03-10T10:52:23.985Z,5.40
2023-03-10T10:54:59.129Z,5.13
2023-03-10T10:57:38.830Z,5.43
2023-03-10T11:00:20.690Z,6.22
2023-03-10T11:02:47.320Z,5.38
2023-03-10T11:05:16.434Z,5.05
2023-03-10T11:07:44.293Z,5.50
2023-03-10T11:10:27.268Z,5.78
2023-03-10T11:13:08.161Z,6.40
2023-03-10T11:15:49.693Z,6.38
2023-03-10T11:18:26.904Z,5.95
2023-03-10T11:21:14.007Z,5.43
2023-03-10T11:23:49.940Z,5.22
2023-03-10T11:26:50.842Z,5.38
2023-03-10T11:30:11.281Z,5.10
2023-03-10T11:33:02.165Z,7.20
2023-03-10T11:35:31.276Z,4.47
2023-03-10T11:38:16.228Z,4.80
2023-03-10T11:40:52.184Z,3.72
2023-03-10T11:43:28.486Z,4.65
2023-03-10T11:45:59.155Z,5.68
2023-03-10T11:48:47.711Z,4.38
2023-03-10T11:51:24.730Z,6.05
2023-03-10T11:53:55.004Z,4.63
2023-03-10T11:56:24.245Z,6.38
2023-03-10T11:59:14.145Z,5.13
2023-03-10T12:01:46.512Z,4.72
2023-03-10T12:04:36.141Z,5.00
2023-03-10T12:07:09.842Z,4.97
2023-03-10T12:09:59.232Z,4.80
2023-03-10T12:12:30.932Z,4.72
2023-03-10T12:15:00.837Z,4.68
2023-03-10T12:17:28.515Z,4.75
2023-03-10T12:20:13.246Z,5.25
2023-03-10T12:22:47.720Z,3.45
2023-03-10T12:25:29.914Z,3.50
2023-03-10T12:28:31.125Z,4.43
2023-03-10T12:31:08.405Z,4.32
2023-03-10T12:33:37.466Z,4.60
2023-03-10T12:36:27.718Z,4.25
2023-03-10T12:39:16.152Z,5.20
2023-03-10T12:41:51.022Z,4.60
2023-03-10T12:44:44.073Z,4.82
2023-03-10T12:47:34.653Z,6.05
2023-03-10T12:50:27.468Z,6.18
2023-03-10T12:53:06.029Z,6.28
2023-03-10T12:55:33.532Z,5.82
2023-03-10T12:58:17.267Z,5.88
2023-03-10T13:00:58.268Z,5.68
2023-03-10T13:03:44.553Z,6.25
2023-03-10T13:06:11.095Z,6.70
2023-03-10T13:08:45.311Z,7.82
2023-03-10T13:11:53.706Z,7.75
2023-03-10T13:14:23.050Z,7.43
2023-03-10T13:16:55.073Z,6.60
2023-03-10T13:19:23.475Z,6.63
2023-03-10T13:21:51.469Z,7.10
2023-03-10T13:24:28.688Z,6.70
2023-03-10T13:27:07.525Z,6.88
2023-03-10T13:29:34.368Z,8.70
2023-03-10T13:32:01.065Z,6.45
2023-03-10T13:34:30.087Z,9.02
2023-03-10T13:37:23.519Z,7.97
2023-03-10T13:39:50.460Z,8.75
2023-03-10T13:42:43.002Z,9.35
2023-03-10T13:45:28.624Z,9.73
2023-03-10T13:47:55.868Z,11.75
2023-03-10T13:50:24.008Z,11.23
2023-03-10T13:52:57.321Z,13.05
2023-03-10T13:55:24.656Z,10.13
2023-03-10T13:57:52.852Z,11.75
2023-03-10T14:00:25.738Z,11.13
2023-03-10T14:02:55.013Z,13.85
2023-03-10T14:05:39.951Z,14.52
2023-03-10T14:08:07.162Z,14.77
2023-03-10T14:10:34.103Z,9.68
2023-03-10T14:13:00.780Z,7.70
2023-03-10T14:15:30.801Z,4.28
2023-03-10T14:18:06.680Z,5.20
2023-03-10T14:20:44.849Z,4.97
2023-03-10T14:23:23.701Z,11.77
2023-03-10T14:25:52.867Z,4.65
2023-03-10T14:28:25.243Z,6.10
2023-03-10T14:30:52.460Z,5.47
2023-03-10T14:33:19.580Z,3.17
2023-03-10T14:35:46.316Z,6.93
2023-03-10T14:38:13.180Z,3.80
2023-03-10T14:40:45.491Z,5.68
2023-03-10T14:43:20.212Z,3.90
2023-03-10T14:45:48.491Z,4.07
2023-03-10T14:48:20.535Z,4.63
2023-03-10T14:50:47.573Z,4.03
2023-03-10T14:53:16.455Z,4.03
2023-03-10T14:55:47.753Z,5.70
2023-03-10T14:58:18.509Z,7.90
2023-03-10T15:00:45.640Z,4.88
2023-03-10T15:03:13.135Z,4.45
2023-03-10T15:05:48.326Z,4.47
2023-03-10T15:08:16.813Z,5.68
2023-03-10T15:10:48.212Z,6.68
2023-03-10T15:13:21.711Z,5.30
2023-03-10T15:15:49.193Z,4.07
2023-03-10T15:18:18.735Z,5.75
2023-03-10T15:20:45.348Z,3.67
2023-03-10T15:23:16.537Z,4.57
2023-03-10T15:25:45.955Z,5.00
2023-03-10T15:28:13.466Z,3.75
2023-03-10T15:30:40.228Z,8.10
2023-03-10T15:33:06.843Z,5.90
2023-03-10T15:35:33.473Z,4.35
2023-03-10T15:38:00.085Z,5.63
2023-03-10T15:40:29.268Z,5.03
2023-03-10T15:42:57.495Z,4.45
2023-03-10T15:45:26.253Z,3.35
2023-03-10T15:47:53.095Z,4.75
2023-03-10T15:50:20.664Z,3.20
2023-03-10T15:52:52.820Z,5.30
2023-03-10T15:55:19.403Z,4.25
2023-03-10T15:57:48.290Z,4.20
2023-03-10T16:00:16.940Z,2.00
2023-03-10T16:02:45.021Z,1.67
2023-03-10T16:05:12.073Z,0.95
2023-03-10T16:07:38.599Z,0.98
2023-03-10T16:10:05.931Z,6.15
2023-03-10T16:12:32.468Z,0.93
2023-03-10T16:14:59.066Z,1.02
2023-03-10T16:17:28.412Z,1.52
2023-03-10T16:19:55.390Z,1.52
2023-03-10T16:22:22.013Z,1.55
2023-03-10T16:24:48.616Z,1.35
2023-03-10T16:27:16.071Z,2.00
2023-03-10T16:29:42.964Z,2.65
2023-03-10T16:32:10.067Z,5.47
2023-03-10T16:34:36.709Z,2.58
2023-03-10T16:37:03.605Z,2.20
2023-03-10T16:39:33.221Z,2.67
2023-03-10T16:42:00.470Z,3.20
2023-03-10T16:44:27.080Z,1.23
2023-03-10T16:46:53.609Z,1.58
2023-03-10T16:49:20.170Z,2.60
2023-03-10T16:51:47.792Z,0.70
2023-03-10T16:54:16.209Z,0.65
2023-03-10T16:56:45.125Z,1.13
2023-03-10T16:59:18.370Z,1.92
2023-03-10T17:01:45.687Z,1.55
2023-03-10T17:04:12.756Z,0.17
2023-03-10T17:06:39.623Z,0.63
2023-03-10T17:09:07.666Z,4.30
2023-03-10T17:11:38.091Z,1.25
2023-03-10T17:14:07.544Z,1.58
2023-03-10T17:16:35.520Z,0.40
2023-03-10T17:19:11.360Z,0.45
2023-03-10T17:21:39.960Z,0.32
2023-03-10T17:24:07.976Z,0.20
2023-03-10T17:26:35.684Z,2.40
2023-03-10T17:29:02.538Z,2.13
2023-03-10T17:31:29.913Z,1.73
2023-03-10T17:34:01.798Z,1.23
2023-03-10T17:36:28.900Z,2.97
2023-03-10T17:38:57.339Z,0.60
2023-03-10T17:41:24.700Z,0.22
2023-03-10T17:43:53.027Z,0.10
2023-03-10T17:46:22.043Z,0.52
2023-03-10T17:48:48.623Z,3.03
2023-03-10T17:51:17.039Z,0.47
2023-03-10T17:53:44.631Z,0.70
2023-03-10T17:56:11.976Z,1.98
2023-03-10T17:58:38.581Z,0.77
2023-03-10T18:01:10.459Z,3.95
2023-03-10T18:03:37.248Z,0.50
2023-03-10T18:06:04.822Z,1.27
2023-03-10T18:08:31.605Z,0.20
2023-03-10T18:11:03.890Z,1.65
2023-03-10T18:13:31.229Z,2.60
2023-03-10T18:15:57.896Z,0.43
2023-03-10T18:18:24.578Z,0.20
2023-03-10T18:20:51.629Z,0.13
2023-03-10T18:23:20.621Z,1.85
2023-03-10T18:25:47.196Z,1.33
2023-03-10T18:28:16.655Z,4.43
2023-03-10T18:30:44.820Z,2.03
2023-03-10T18:33:12.351Z,1.17
2023-03-10T18:35:40.525Z,1.15
2023-03-10T18:38:07.657Z,0.50
2023-03-10T18:40:34.181Z,0.50
2023-03-10T18:43:00.735Z,1.90
2023-03-10T18:45:27.390Z,4.63
2023-03-10T18:47:53.915Z,2.50
2023-03-10T18:50:20.591Z,3.97
2023-03-10T18:52:47.357Z,4.85
2023-03-10T18:55:14.012Z,6.05
2023-03-10T18:57:40.572Z,9.88
2023-03-10T19:00:07.953Z,5.80
2023-03-10T19:02:35.810Z,4.05
2023-03-10T19:05:05.694Z,2.70
2023-03-10T19:07:36.789Z,3.53
2023-03-10T19:10:04.640Z,1.13
2023-03-10T19:12:31.208Z,3.28
2023-03-10T19:15:06.769Z,3.40
2023-03-10T19:17:34.030Z,4.13
2023-03-10T19:20:00.840Z,2.65
2023-03-10T19:22:28.529Z,4.25
2023-03-10T19:24:55.321Z,6.22
2023-03-10T19:27:22.020Z,2.45
2023-03-10T19:29:52.830Z,4.15
2023-03-10T19:32:20.404Z,4.35
2023-03-10T19:34:47.277Z,12.27
2023-03-10T19:37:13.851Z,5.30
2023-03-10T19:39:40.382Z,6.90
2023-03-10T19:42:07.293Z,8.38
2023-03-10T19:44:33.834Z,13.82
2023-03-10T19:47:00.695Z,6.50
2023-03-10T19:49:27.281Z,11.95
2023-03-10T19:51:53.817Z,5.30
2023-03-10T19:54:20.352Z,4.35
2023-03-10T19:56:46.912Z,3.53
2023-03-10T19:59:13.449Z,2.35
2023-03-10T20:01:42.131Z,4.53
2023-03-10T20:04:10.231Z,5.45
2023-03-10T20:06:36.784Z,12.95
2023-03-10T20:09:04.708Z,4.63
2023-03-10T20:11:31.238Z,8.13
2023-03-10T20:13:57.759Z,8.50
2023-03-10T20:16:27.544Z,7.00
2023-03-10T20:18:54.214Z,4.30
2023-03-10T20:21:20.899Z,4.38
2023-03-10T20:23:48.606Z,10.88
2023-03-10T20:26:16.191Z,11.02
2023-03-10T20:28:43.571Z,8.00
2023-03-10T20:31:10.171Z,3.25
2023-03-10T20:33:36.872Z,6.78
2023-03-10T20:36:03.696Z,2.97
2023-03-10T20:38:30.242Z,2.45
2023-03-10T20:40:57.526Z,3.60
2023-03-10T20:43:24.157Z,5.07
2023-03-10T20:45:52.521Z,6.05
2023-03-10T20:48:19.120Z,4.18
2023-03-10T20:50:45.672Z,2.42
2023-03-10T20:53:12.192Z,2.55
2023-03-10T20:55:41.615Z,1.77
2023-03-10T20:58:08.658Z,1.17
2023-03-10T21:00:35.159Z,3.03
2023-03-10T21:03:02.009Z,1.85
2023-03-10T21:05:28.696Z,0.40
2023-03-10T21:07:56.224Z,7.55
2023-03-10T21:10:25.907Z,7.13
2023-03-10T21:12:52.547Z,1.73
2023-03-10T21:15:19.689Z,2.13
2023-03-10T21:17:46.376Z,2.95
2023-03-10T21:20:16.823Z,3.90
2023-03-10T21:22:43.592Z,7.25
2023-03-10T21:25:14.899Z,8.35
2023-03-10T21:27:41.861Z,6.78
2023-03-10T21:30:12.722Z,5.30
2023-03-10T21:32:39.348Z,8.25
2023-03-10T21:35:06.500Z,5.30
2023-03-10T21:37:33.076Z,2.65
2023-03-10T21:39:59.657Z,8.70
2023-03-10T21:42:26.240Z,7.13
2023-03-10T21:44:55.137Z,8.35
2023-03-10T21:47:21.697Z,5.75
2023-03-10T21:49:48.243Z,8.18
2023-03-10T21:52:14.811Z,9.75
2023-03-10T21:54:42.200Z,2.80
2023-03-10T21:57:08.868Z,5.07
2023-03-10T21:59:35.469Z,2.20
2023-03-10T22:02:02.044Z,6.88
2023-03-10T22:04:28.605Z,3.60
2023-03-10T22:06:55.186Z,2.90
2023-03-10T22:09:21.840Z,4.50
2023-03-10T22:11:48.377Z,3.88
2023-03-10T22:14:14.927Z,6.10
2023-03-10T22:16:42.084Z,5.60
2023-03-10T22:19:08.673Z,8.93
2023-03-10T22:21:35.249Z,8.15
2023-03-10T22:24:03.097Z,3.55
2023-03-10T22:26:29.651Z,8.38
2023-03-10T22:28:56.302Z,4.22
2023-03-10T22:31:23.750Z,6.45
2023-03-10T22:33:50.462Z,4.65
2023-03-10T22:36:18.942Z,3.33
2023-03-10T22:38:45.488Z,6.18
2023-03-10T22:41:12.928Z,9.45
2023-03-10T22:43:39.647Z,3.55
2023-03-10T22:46:11.703Z,5.45
2023-03-10T22:48:38.382Z,5.20
2023-03-10T22:51:14.209Z,2.55
2023-03-10T22:53:40.806Z,2.80
2023-03-10T22:56:08.117Z,4.75
2023-03-10T22:58:34.658Z,5.10
2023-03-10T23:01:01.205Z,8.55
2023-03-10T23:03:27.804Z,5.53
2023-03-10T23:05:54.365Z,1.58
2023-03-10T23:08:20.890Z,4.28
2023-03-10T23:10:47.435Z,5.55
2023-03-10T23:13:15.797Z,1.70
2023-03-10T23:15:43.210Z,4.43
2023-03-10T23:18:10.506Z,3.20
2023-03-10T23:20:45.638Z,1.30
2023-03-10T23:23:14.721Z,2.92
2023-03-10T23:25:44.037Z,8.00
2023-03-10T23:28:11.471Z,5.50
2023-03-10T23:30:39.886Z,5.88
2023-03-10T23:33:07.569Z,5.78
2023-03-10T23:35:35.447Z,5.63
2023-03-10T23:38:05.004Z,3.30
2023-03-10T23:40:32.539Z,3.42
2023-03-10T23:43:00.742Z,5.45
2023-03-10T23:45:29.216Z,1.08
2023-03-10T23:47:57.857Z,10.48
2023-03-10T23:50:27.145Z,8.80
2023-03-10T23:52:54.352Z,4.32
2023-03-10T23:55:23.826Z,2.42
2023-03-10T23:57:50.644Z,3.15
